createdAt,value
2019-04-03T00:00:43.031Z,18.27
2019-04-03T00:03:12.370Z,15.77
2019-04-03T00:05:41.645Z,21.40
2019-04-03T00:08:10.945Z,21.03
2019-04-03T00:10:40.276Z,24.33
2019-04-03T00:13:11.178Z,26.37
2019-04-03T00:15:40.780Z,23.30
2019-04-03T00:18:10.140Z,24.00
2019-04-03T00:20:39.445Z,21.93
2019-04-03T00:23:08.814Z,21.50
2019-04-03T00:25:38.398Z,21.40
2019-04-03T00:28:07.688Z,18.43
2019-04-03T00:30:36.981Z,22.73
2019-04-03T00:33:06.336Z,22.80
2019-04-03T00:35:35.607Z,26.03
2019-04-03T00:38:04.893Z,21.27
2019-04-03T00:40:34.233Z,24.03
2019-04-03T00:43:03.638Z,23.43
2019-04-03T00:45:32.961Z,18.90
2019-04-03T00:48:02.237Z,18.97
2019-04-03T00:50:32.577Z,17.90
2019-04-03T00:53:01.958Z,21.50
2019-04-03T00:55:31.224Z,16.73
2019-04-03T00:58:00.509Z,16.50
2019-04-03T01:00:29.813Z,18.97
2019-04-03T01:02:59.149Z,21.20
2019-04-03T01:05:29.057Z,17.13
2019-04-03T01:08:00.178Z,20.03
2019-04-03T01:10:30.260Z,19.10
2019-04-03T01:13:02.067Z,19.20
2019-04-03T01:15:32.172Z,17.77
2019-04-03T01:18:04.413Z,18.20
2019-04-03T01:20:32.694Z,25.03
2019-04-03T01:23:01.968Z,17.20
2019-04-03T01:25:31.253Z,15.37
2019-04-03T01:28:00.533Z,14.90
2019-04-03T01:30:29.805Z,15.87
2019-04-03T01:32:59.079Z,16.67
2019-04-03T01:35:28.358Z,17.50
2019-04-03T01:37:57.624Z,14.77
2019-04-03T01:40:26.925Z,15.93
2019-04-03T01:42:56.211Z,12.40
2019-04-03T01:45:26.228Z,12.93
2019-04-03T01:47:57.424Z,12.90
2019-04-03T01:50:28.720Z,15.43
2019-04-03T01:52:58.438Z,12.33
2019-04-03T01:55:27.725Z,15.40
2019-04-03T01:57:57.116Z,13.37
2019-04-03T02:00:27.504Z,14.57
2019-04-03T02:02:56.865Z,13.97
2019-04-03T02:05:26.131Z,10.13
2019-04-03T02:07:55.401Z,16.17
2019-04-03T02:10:26.709Z,15.10
2019-04-03T02:12:56.056Z,13.33
2019-04-03T02:15:25.330Z,15.23
2019-04-03T02:17:55.237Z,20.00
2019-04-03T02:20:26.535Z,15.10
2019-04-03T02:22:59.631Z,17.37
2019-04-03T02:25:27.589Z,18.63
2019-04-03T02:27:56.870Z,14.43
2019-04-03T02:30:26.140Z,17.43
2019-04-03T02:32:56.902Z,13.90
2019-04-03T02:35:26.394Z,13.07
2019-04-03T02:37:55.794Z,15.30
2019-04-03T02:40:25.163Z,9.30
2019-04-03T02:42:54.826Z,10.03
2019-04-03T02:45:24.891Z,12.40
2019-04-03T02:47:54.367Z,11.70
2019-04-03T02:50:25.646Z,9.43
2019-04-03T02:52:57.990Z,11.03
2019-04-03T02:55:26.793Z,9.93
2019-04-03T02:57:56.125Z,7.87
2019-04-03T03:00:25.431Z,8.20
2019-04-03T03:02:54.966Z,11.10
2019-04-03T03:05:27.219Z,10.83
2019-04-03T03:07:55.439Z,8.10
2019-04-03T03:10:24.953Z,9.03
2019-04-03T03:12:55.395Z,7.73
2019-04-03T03:15:26.950Z,8.17
2019-04-03T03:17:56.573Z,7.40
2019-04-03T03:20:29.054Z,8.60
2019-04-03T03:22:59.444Z,5.13
2019-04-03T03:25:32.234Z,7.60
2019-04-03T03:28:00.276Z,6.03
2019-04-03T03:30:41.937Z,6.33
2019-04-03T03:33:24.479Z,5.07
2019-04-03T03:35:42.556Z,8.73
2019-04-03T03:38:07.639Z,3.87
2019-04-03T03:40:38.185Z,4.87
2019-04-03T03:43:07.988Z,5.47
2019-04-03T03:45:37.494Z,5.27
2019-04-03T03:48:09.399Z,5.33
2019-04-03T03:50:38.950Z,6.17
2019-04-03T03:53:11.791Z,5.60
2019-04-03T03:55:39.968Z,4.83
2019-04-03T03:58:12.151Z,5.63
2019-04-03T04:00:41.188Z,4.50
2019-04-03T04:03:11.279Z,5.30
2019-04-03T04:05:41.290Z,5.80
2019-04-03T04:08:11.620Z,6.57
2019-04-03T04:10:42.244Z,9.93
2019-04-03T04:13:15.147Z,12.07
2019-04-03T04:15:43.329Z,5.97
2019-04-03T04:18:14.411Z,6.43
2019-04-03T04:20:44.549Z,6.80
2019-04-03T04:23:13.980Z,6.20
2019-04-03T04:25:44.637Z,6.00
2019-04-03T04:28:14.297Z,5.13
2019-04-03T04:30:46.017Z,8.30
2019-04-03T04:33:16.949Z,5.20
2019-04-03T04:35:46.473Z,5.37
2019-04-03T04:38:15.757Z,7.47
2019-04-03T04:40:45.021Z,8.53
2019-04-03T04:43:14.362Z,8.00
2019-04-03T04:45:43.632Z,9.67
2019-04-03T04:48:16.202Z,6.20
2019-04-03T04:50:44.883Z,9.80
2019-04-03T04:53:14.288Z,9.10
2019-04-03T04:55:43.562Z,5.87
2019-04-03T04:58:12.830Z,7.37
2019-04-03T05:00:42.177Z,8.23
2019-04-03T05:03:11.472Z,9.20
2019-04-03T05:05:40.731Z,8.63
2019-04-03T05:08:10.019Z,12.47
2019-04-03T05:10:39.510Z,8.07
2019-04-03T05:13:08.761Z,7.60
2019-04-03T05:15:38.058Z,8.63
2019-04-03T05:18:08.289Z,9.23
2019-04-03T05:20:37.571Z,10.50
2019-04-03T05:23:06.841Z,12.03
2019-04-03T05:25:36.179Z,7.87
2019-04-03T05:28:05.505Z,8.97
2019-04-03T05:30:37.781Z,10.73
2019-04-03T05:33:06.957Z,8.47
2019-04-03T05:35:37.561Z,10.77
2019-04-03T05:38:07.071Z,9.23
2019-04-03T05:40:36.646Z,9.87
2019-04-03T05:43:06.000Z,12.17
2019-04-03T05:45:35.714Z,10.43
2019-04-03T05:48:05.975Z,10.20
2019-04-03T05:50:36.689Z,11.60
2019-04-03T05:53:06.630Z,9.40
2019-04-03T05:55:35.961Z,15.03
2019-04-03T05:58:05.459Z,15.17
2019-04-03T06:00:37.530Z,12.37
2019-04-03T06:03:05.876Z,10.80
2019-04-03T06:05:35.145Z,16.67
2019-04-03T06:08:04.433Z,12.60
2019-04-03T06:10:36.554Z,11.90
2019-04-03T06:13:05.775Z,13.30
2019-04-03T06:15:35.638Z,20.97
2019-04-03T06:18:05.101Z,17.53
2019-04-03T06:20:34.424Z,20.80
2019-04-03T06:23:03.689Z,16.17
2019-04-03T06:25:33.062Z,16.50
2019-04-03T06:28:02.609Z,17.43
2019-04-03T06:30:32.013Z,17.37
2019-04-03T06:33:02.150Z,17.00
2019-04-03T06:35:34.621Z,13.33
2019-04-03T06:38:02.601Z,16.37
2019-04-03T06:40:32.183Z,19.80
2019-04-03T06:43:03.059Z,15.07
2019-04-03T06:45:32.309Z,12.50
2019-04-03T06:48:04.249Z,14.37
2019-04-03T06:50:32.570Z,21.40
2019-04-03T06:53:01.900Z,16.93
2019-04-03T06:55:31.234Z,14.43
2019-04-03T06:58:00.894Z,19.03
2019-04-03T07:00:31.171Z,19.17
2019-04-03T07:03:01.493Z,15.87
2019-04-03T07:05:31.423Z,17.93
2019-04-03T07:08:01.310Z,21.23
2019-04-03T07:10:31.520Z,13.90
2019-04-03T07:13:00.778Z,17.13
2019-04-03T07:15:30.053Z,19.23
2019-04-03T07:18:01.067Z,17.70
2019-04-03T07:20:30.350Z,18.63
2019-04-03T07:22:59.639Z,23.50
2019-04-03T07:25:28.998Z,17.37
2019-04-03T07:27:58.341Z,21.70
2019-04-03T07:30:27.660Z,17.57
2019-04-03T07:32:58.295Z,14.90
2019-04-03T07:35:27.811Z,23.60
2019-04-03T07:37:57.101Z,16.23
2019-04-03T07:40:26.570Z,14.70
2019-04-03T07:42:56.944Z,17.13
2019-04-03T07:45:26.373Z,15.20
2019-04-03T07:47:55.686Z,16.70
2019-04-03T07:50:25.031Z,18.00
2019-04-03T07:52:54.341Z,20.47
2019-04-03T07:55:24.276Z,18.07
2019-04-03T07:57:54.625Z,17.53
2019-04-03T08:00:24.042Z,18.57
2019-04-03T08:02:53.510Z,21.03
2019-04-03T08:05:22.806Z,15.13
2019-04-03T08:07:52.077Z,16.23
2019-04-03T08:10:21.368Z,21.23
2019-04-03T08:12:50.666Z,18.00
2019-04-03T08:15:20.090Z,19.77
2019-04-03T08:17:49.892Z,19.47
2019-04-03T08:20:20.580Z,21.97
2019-04-03T08:22:50.019Z,19.90
2019-04-03T08:25:19.668Z,16.40
2019-04-03T08:27:49.019Z,20.63
2019-04-03T08:30:18.530Z,18.47
2019-04-03T08:32:48.958Z,15.27
2019-04-03T08:35:23.084Z,13.53
2019-04-03T08:37:50.398Z,18.93
2019-04-03T08:40:20.319Z,18.57
2019-04-03T08:42:50.437Z,15.60
2019-04-03T08:45:21.991Z,14.53
2019-04-03T08:47:50.711Z,12.40
2019-04-03T08:50:20.033Z,14.73
2019-04-03T08:52:50.962Z,13.40
2019-04-03T08:55:20.547Z,12.60
2019-04-03T08:57:52.083Z,11.20
2019-04-03T09:00:22.159Z,9.30
2019-04-03T09:02:51.476Z,13.87
2019-04-03T09:05:20.764Z,17.37
2019-04-03T09:07:50.113Z,12.47
2019-04-03T09:10:19.526Z,13.93
2019-04-03T09:12:49.032Z,18.90
2019-04-03T09:15:18.440Z,16.70
2019-04-03T09:17:48.086Z,15.00
2019-04-03T09:20:19.127Z,14.20
2019-04-03T09:22:49.887Z,12.70
2019-04-03T09:25:20.896Z,15.90
2019-04-03T09:27:50.197Z,15.03
2019-04-03T09:30:19.813Z,16.93
2019-04-03T09:32:49.101Z,13.60
2019-04-03T09:35:18.424Z,14.03
2019-04-03T09:37:47.831Z,22.60
2019-04-03T09:40:17.907Z,17.57
2019-04-03T09:42:47.571Z,14.00
2019-04-03T09:45:17.010Z,12.63
2019-04-03T09:47:46.346Z,15.50
2019-04-03T09:50:16.135Z,14.33
2019-04-03T09:52:49.351Z,13.73
2019-04-03T09:55:16.480Z,13.60
2019-04-03T09:57:45.745Z,12.77
2019-04-03T10:00:16.190Z,13.00
2019-04-03T10:02:45.525Z,14.33
2019-04-03T10:05:15.640Z,14.33
2019-04-03T10:07:44.934Z,13.00
2019-04-03T10:10:16.536Z,11.63
2019-04-03T10:12:48.024Z,13.10
2019-04-03T10:15:19.722Z,15.60
2019-04-03T10:17:48.996Z,12.40
2019-04-03T10:20:20.996Z,7.67
2019-04-03T10:22:50.633Z,9.67
2019-04-03T10:25:19.909Z,7.93
2019-04-03T10:27:49.197Z,9.37
2019-04-03T10:30:21.559Z,11.90
2019-04-03T10:32:50.412Z,7.50
2019-04-03T10:35:19.853Z,7.30
2019-04-03T10:37:49.129Z,11.33
2019-04-03T10:40:18.838Z,11.63
2019-04-03T10:42:48.254Z,7.27
2019-04-03T10:45:19.474Z,8.77
2019-04-03T10:47:49.008Z,8.07
2019-04-03T10:50:18.461Z,9.37
2019-04-03T10:52:49.276Z,8.77
2019-04-03T10:55:18.684Z,9.30
2019-04-03T10:57:48.232Z,6.30
2019-04-03T11:00:17.800Z,7.63
2019-04-03T11:02:47.132Z,5.57
2019-04-03T11:05:17.211Z,6.70
2019-04-03T11:07:46.914Z,6.07
2019-04-03T11:10:16.609Z,7.00
2019-04-03T11:12:45.924Z,6.80
2019-04-03T11:15:15.840Z,7.07
2019-04-03T11:17:45.285Z,6.47
2019-04-03T11:20:15.810Z,8.90
2019-04-03T11:22:45.925Z,7.97
2019-04-03T11:25:16.554Z,10.10
2019-04-03T11:27:46.256Z,7.97
2019-04-03T11:30:54.191Z,9.33
2019-04-03T11:32:48.412Z,8.03
2019-04-03T11:35:20.813Z,8.13
2019-04-03T11:37:48.666Z,6.43
2019-04-03T11:40:18.805Z,7.83
2019-04-03T11:42:48.229Z,7.93
2019-04-03T11:45:19.302Z,8.17
2019-04-03T11:47:48.645Z,5.47
2019-04-03T11:50:18.456Z,4.37
2019-04-03T11:52:47.961Z,8.37
2019-04-03T11:55:17.801Z,7.03
2019-04-03T11:57:48.597Z,5.23
2019-04-03T12:00:20.911Z,5.00
2019-04-03T12:02:50.313Z,7.83
2019-04-03T12:05:20.995Z,4.63
2019-04-03T12:07:51.206Z,4.70
2019-04-03T12:10:20.497Z,3.87
2019-04-03T12:12:49.774Z,3.87
2019-04-03T12:15:21.410Z,5.10
2019-04-03T12:17:50.194Z,4.67
2019-04-03T12:20:19.476Z,7.30
2019-04-03T12:22:48.763Z,6.03
2019-04-03T12:25:18.293Z,4.93
2019-04-03T12:27:47.787Z,3.67
2019-04-03T12:30:17.674Z,4.37
2019-04-03T12:32:49.013Z,5.37
2019-04-03T12:35:17.914Z,4.13
2019-04-03T12:37:49.484Z,3.57
2019-04-03T12:40:18.287Z,6.40
2019-04-03T12:42:47.886Z,3.77
2019-04-03T12:45:18.734Z,6.60
2019-04-03T12:47:48.194Z,4.67
2019-04-03T12:50:17.592Z,6.43
2019-04-03T12:52:46.881Z,7.83
2019-04-03T12:55:16.177Z,7.13
2019-04-03T12:57:45.506Z,5.40
2019-04-03T13:00:16.175Z,4.83
2019-04-03T13:02:45.778Z,6.30
2019-04-03T13:05:16.765Z,6.67
2019-04-03T13:07:47.562Z,7.30
2019-04-03T13:10:17.881Z,8.40
2019-04-03T13:12:47.161Z,6.43
2019-04-03T13:15:17.126Z,6.67
2019-04-03T13:17:46.618Z,5.53
2019-04-03T13:20:16.024Z,4.83
2019-04-03T13:22:45.322Z,7.73
2019-04-03T13:25:15.161Z,6.27
2019-04-03T13:27:44.485Z,7.83
2019-04-03T13:30:15.514Z,5.03
2019-04-03T13:32:56.773Z,7.20
2019-04-03T13:35:16.749Z,5.27
2019-04-03T13:37:46.440Z,7.60
2019-04-03T13:40:16.663Z,5.03
2019-04-03T13:42:49.278Z,6.33
2019-04-03T13:45:17.236Z,7.33
2019-04-03T13:47:47.134Z,4.90
2019-04-03T13:50:17.296Z,5.43
2019-04-03T13:52:49.655Z,6.93
2019-04-03T13:55:17.669Z,4.20
2019-04-03T13:57:49.219Z,4.17
2019-04-03T14:00:22.982Z,4.00
2019-04-03T14:02:50.650Z,4.60
2019-04-03T14:05:19.935Z,6.27
2019-04-03T14:07:49.350Z,4.37
2019-04-03T14:10:18.794Z,5.73
2019-04-03T14:12:48.407Z,7.60
2019-04-03T14:15:20.327Z,6.03
2019-04-03T14:17:57.060Z,4.80
2019-04-03T14:20:22.980Z,8.93
2019-04-03T14:22:54.518Z,5.27
2019-04-03T14:25:27.449Z,5.70
2019-04-03T14:27:54.764Z,4.47
2019-04-03T14:30:24.098Z,6.93
2019-04-03T14:32:54.651Z,5.93
2019-04-03T14:35:45.380Z,4.83
2019-04-03T14:37:58.319Z,4.67
2019-04-03T14:40:26.356Z,3.83
2019-04-03T14:42:58.192Z,5.17
2019-04-03T14:45:26.607Z,3.83
2019-04-03T14:47:56.369Z,5.27
2019-04-03T14:50:26.050Z,4.00
2019-04-03T14:52:55.370Z,4.10
2019-04-03T14:55:26.608Z,5.70
2019-04-03T14:57:56.263Z,5.00
2019-04-03T15:00:29.909Z,8.37
2019-04-03T15:02:57.541Z,9.83
2019-04-03T15:05:26.999Z,4.33
2019-04-03T15:07:56.254Z,2.90
2019-04-03T15:10:25.536Z,7.37
2019-04-03T15:12:54.802Z,6.00
2019-04-03T15:15:26.375Z,3.10
2019-04-03T15:17:55.044Z,4.97
2019-04-03T15:20:24.330Z,6.63
2019-04-03T15:22:53.905Z,7.77
2019-04-03T15:25:23.710Z,5.60
2019-04-03T15:27:53.137Z,2.73
2019-04-03T15:30:24.820Z,4.97
2019-04-03T15:32:53.534Z,5.40
2019-04-03T15:35:23.096Z,6.37
2019-04-03T15:37:53.659Z,4.20
2019-04-03T15:40:25.740Z,3.80
2019-04-03T15:42:54.725Z,4.27
2019-04-03T15:45:25.482Z,3.40
2019-04-03T15:47:57.572Z,6.77
2019-04-03T15:50:28.385Z,5.50
2019-04-03T15:52:58.081Z,3.90
2019-04-03T15:55:27.450Z,4.23
2019-04-03T15:57:56.869Z,5.77
2019-04-03T16:00:27.537Z,5.37
2019-04-03T16:02:56.935Z,9.70
2019-04-03T16:05:26.254Z,7.73
2019-04-03T16:07:55.530Z,7.93
2019-04-03T16:10:25.826Z,6.03
2019-04-03T16:12:55.182Z,6.40
2019-04-03T16:15:24.627Z,5.20
2019-04-03T16:17:54.386Z,8.37
2019-04-03T16:20:23.706Z,6.73
2019-04-03T16:22:53.036Z,4.87
2019-04-03T16:25:22.315Z,7.23
2019-04-03T16:27:51.655Z,7.47
2019-04-03T16:30:22.069Z,5.27
2019-04-03T16:32:51.360Z,5.17
2019-04-03T16:35:20.655Z,7.93
2019-04-03T16:37:51.310Z,7.67
2019-04-03T16:40:21.341Z,5.97
2019-04-03T16:42:52.967Z,5.90
2019-04-03T16:45:21.821Z,4.43
2019-04-03T16:47:51.140Z,6.40
2019-04-03T16:50:20.466Z,5.73
2019-04-03T16:52:49.749Z,5.53
2019-04-03T16:55:19.333Z,4.40
2019-04-03T16:57:48.672Z,4.60
2019-04-03T17:00:19.378Z,6.90
2019-04-03T17:02:48.656Z,5.20
2019-04-03T17:05:17.934Z,6.77
2019-04-03T17:07:47.373Z,5.20
2019-04-03T17:10:16.899Z,8.63
2019-04-03T17:12:47.915Z,6.10
2019-04-03T17:15:17.256Z,4.40
2019-04-03T17:17:47.120Z,7.47
2019-04-03T17:20:17.247Z,5.67
2019-04-03T17:22:46.927Z,5.70
2019-04-03T17:25:16.424Z,6.77
2019-04-03T17:27:55.043Z,4.97
2019-04-03T17:30:18.298Z,6.43
2019-04-03T17:32:49.310Z,4.27
2019-04-03T17:35:18.972Z,3.60
2019-04-03T17:37:48.359Z,9.43
2019-04-03T17:40:17.700Z,9.27
2019-04-03T17:42:46.994Z,8.57
2019-04-03T17:45:16.491Z,6.73
2019-04-03T17:47:45.886Z,9.53
2019-04-03T17:50:15.217Z,5.53
2019-04-03T17:52:44.492Z,5.10
2019-04-03T17:55:13.920Z,6.67
2019-04-03T17:57:45.291Z,7.73
2019-04-03T18:00:16.767Z,4.73
2019-04-03T18:02:46.032Z,6.93
2019-04-03T18:05:15.532Z,6.17
2019-04-03T18:07:44.827Z,8.17
2019-04-03T18:10:14.532Z,5.10
2019-04-03T18:12:45.670Z,6.40
2019-04-03T18:15:15.740Z,6.60
2019-04-03T18:17:45.028Z,6.70
2019-04-03T18:20:14.733Z,6.73
2019-04-03T18:22:44.001Z,8.27
2019-04-03T18:25:14.002Z,7.60
2019-04-03T18:27:43.280Z,6.60
2019-04-03T18:30:13.188Z,10.80
2019-04-03T18:32:45.530Z,8.03
2019-04-03T18:35:14.150Z,4.17
2019-04-03T18:37:43.425Z,8.73
2019-04-03T18:40:15.100Z,6.53
2019-04-03T18:42:44.019Z,6.17
2019-04-03T18:45:24.535Z,7.27
2019-04-03T18:47:46.459Z,6.40
2019-04-03T18:50:15.644Z,7.60
2019-04-03T18:52:44.995Z,7.43
2019-04-03T18:55:14.775Z,8.67
2019-04-03T18:57:44.230Z,5.57
2019-04-03T19:00:14.041Z,5.30
2019-04-03T19:02:43.329Z,11.33
2019-04-03T19:05:14.236Z,7.33
2019-04-03T19:07:45.866Z,8.23
2019-04-03T19:10:17.947Z,7.83
2019-04-03T19:12:45.908Z,10.70
2019-04-03T19:15:15.348Z,11.53
2019-04-03T19:17:44.625Z,10.37
2019-04-03T19:20:14.017Z,8.17
2019-04-03T19:22:43.293Z,7.60
2019-04-03T19:25:12.634Z,11.70
2019-04-03T19:27:41.938Z,12.83
2019-04-03T19:30:12.178Z,9.10
2019-04-03T19:32:43.258Z,9.53
2019-04-03T19:35:12.585Z,10.27
2019-04-03T19:37:45.171Z,11.03
2019-04-03T19:40:13.921Z,9.53
2019-04-03T19:42:43.875Z,10.70
2019-04-03T19:45:13.892Z,13.13
2019-04-03T19:47:43.156Z,10.40
2019-04-03T19:50:12.578Z,14.63
2019-04-03T19:52:42.453Z,11.10
2019-04-03T19:55:13.489Z,10.77
2019-04-03T19:57:42.751Z,11.97
2019-04-03T20:00:13.140Z,11.50
2019-04-03T20:02:42.997Z,14.07
2019-04-03T20:05:13.253Z,12.00
2019-04-03T20:07:42.700Z,13.13
2019-04-03T20:10:12.054Z,13.27
2019-04-03T20:12:41.484Z,13.80
2019-04-03T20:15:11.303Z,13.20
2019-04-03T20:17:40.581Z,13.67
2019-04-03T20:20:11.477Z,13.70
2019-04-03T20:22:42.392Z,16.57
2019-04-03T20:25:15.130Z,20.23
2019-04-03T20:27:46.994Z,18.33
2019-04-03T20:30:15.007Z,15.00
2019-04-03T20:32:44.294Z,15.70
2019-04-03T20:35:13.564Z,19.60
2019-04-03T20:37:44.084Z,16.53
2019-04-03T20:40:13.468Z,20.43
2019-04-03T20:42:42.748Z,18.03
2019-04-03T20:45:12.099Z,19.03
2019-04-03T20:47:41.393Z,16.60
2019-04-03T20:50:11.057Z,17.27
2019-04-03T20:52:41.412Z,18.43
2019-04-03T20:55:10.770Z,22.97
2019-04-03T20:57:40.070Z,21.87
2019-04-03T21:00:13.868Z,22.83
2019-04-03T21:02:43.228Z,19.63
2019-04-03T21:05:12.496Z,18.23
2019-04-03T21:07:41.779Z,22.63
2019-04-03T21:10:11.500Z,21.07
2019-04-03T21:12:40.784Z,20.30
2019-04-03T21:15:13.717Z,23.67
2019-04-03T21:17:42.515Z,21.73
2019-04-03T21:20:12.222Z,21.20
2019-04-03T21:22:41.505Z,20.40
2019-04-03T21:25:10.842Z,18.83
2019-04-03T21:27:40.725Z,19.33
2019-04-03T21:30:10.916Z,22.20
2019-04-03T21:32:40.200Z,22.03
2019-04-03T21:35:09.786Z,23.10
2019-04-03T21:37:40.527Z,20.00
2019-04-03T21:40:10.276Z,20.00
2019-04-03T21:42:39.568Z,21.83
2019-04-03T21:45:09.192Z,23.03
2019-04-03T21:47:38.490Z,28.77
2019-04-03T21:50:07.907Z,21.60
2019-04-03T21:52:37.163Z,25.50
2019-04-03T21:55:07.625Z,19.87
2019-04-03T21:57:38.419Z,21.00
2019-04-03T22:00:13.188Z,22.47
2019-04-03T22:02:44.853Z,20.93
2019-04-03T22:05:13.192Z,23.20
2019-04-03T22:07:42.465Z,21.60
2019-04-03T22:10:13.344Z,21.87
2019-04-03T22:12:42.632Z,23.43
2019-04-03T22:15:13.936Z,21.00
2019-04-03T22:17:43.741Z,26.17
2019-04-03T22:20:14.267Z,21.57
2019-04-03T22:22:43.550Z,22.00
2019-04-03T22:25:12.834Z,22.87
2019-04-03T22:27:42.711Z,23.20
2019-04-03T22:30:12.683Z,23.37
2019-04-03T22:32:41.969Z,24.60
2019-04-03T22:35:11.233Z,26.60
2019-04-03T22:37:40.524Z,26.20
2019-04-03T22:40:10.975Z,23.97
2019-04-03T22:42:40.296Z,23.73
2019-04-03T22:45:10.561Z,23.00
2019-04-03T22:47:39.861Z,21.77
2019-04-03T22:50:09.491Z,25.53
2019-04-03T22:52:39.930Z,28.03
2019-04-03T22:55:09.755Z,25.50
2019-04-03T22:57:39.032Z,26.50
2019-04-03T23:00:08.440Z,25.37
2019-04-03T23:02:39.328Z,23.13
2019-04-03T23:05:08.677Z,25.33
2019-04-03T23:07:37.951Z,29.23
2019-04-03T23:10:07.324Z,22.77
2019-04-03T23:12:36.589Z,24.47
2019-04-03T23:15:08.919Z,26.30
2019-04-03T23:17:37.891Z,27.23
2019-04-03T23:20:07.300Z,26.27
2019-04-03T23:22:37.541Z,27.20
2019-04-03T23:25:07.062Z,28.53
2019-04-03T23:27:36.347Z,28.87
2019-04-03T23:30:10.057Z,26.53
2019-04-03T23:32:37.794Z,28.07
2019-04-03T23:35:07.328Z,27.13
2019-04-03T23:37:36.610Z,29.30
2019-04-03T23:40:06.755Z,24.73
2019-04-03T23:42:37.913Z,31.23
2019-04-03T23:45:08.165Z,27.20
2019-04-03T23:47:38.496Z,28.97
2019-04-03T23:50:08.125Z,25.20
2019-04-03T23:52:37.398Z,26.57
2019-04-03T23:55:07.217Z,25.10
2019-04-03T23:57:39.595Z,23.23
